sensor_id;sensor_type;location;lat;lon;timestamp;pressure;altitude;pressure_sealevel;temperature;humidity
48624;BME280;75490;45.802;16.114;2024-03-23T00:52:36;64590.41;;;7.55;100.00
48624;BME280;75490;45.802;16.114;2024-03-23T00:55:03;64586.09;;;7.48;100.00
48624;BME280;75490;45.802;16.114;2024-03-23T00:57:30;64585.53;;;7.42;100.00
48624;BME280;75490;45.802;16.114;2024-03-23T00:59:56;64587.69;;;7.44;100.00
48624;BME280;75490;45.802;16.114;2024-03-23T01:02:23;64578.03;;;7.40;100.00
48624;BME280;75490;45.802;16.114;2024-03-23T01:04:50;64587.69;;;7.44;100.00
48624;BME280;75490;45.802;16.114;2024-03-23T01:07:17;64578.59;;;7.43;100.00
48624;BME280;75490;45.802;16.114;2024-03-23T01:09:44;64575.91;;;7.38;100.00
48624;BME280;75490;45.802;16.114;2024-03-23T01:12:10;64582.31;;;7.39;100.00
48624;BME280;75490;45.802;16.114;2024-03-23T01:14:37;64583.38;;;7.40;100.00
48624;BME280;75490;45.802;16.114;2024-03-23T01:17:04;64580.72;;;7.40;100.00
48624;BME280;75490;45.802;16.114;2024-03-23T01:19:31;64578.56;;;7.41;100.00
48624;BME280;75490;45.802;16.114;2024-03-23T01:21:58;64583.38;;;7.40;100.00
48624;BME280;75490;45.802;16.114;2024-03-23T01:24:25;64574.78;;;7.32;100.00
48624;BME280;75490;45.802;16.114;2024-03-23T01:26:51;64574.78;;;7.32;100.00
48624;BME280;75490;45.802;16.114;2024-03-23T01:29:18;64578.03;;;7.35;100.00
48624;BME280;75490;45.802;16.114;2024-03-23T01:31:45;64566.22;;;7.24;100.00
48624;BME280;75490;45.802;16.114;2024-03-23T01:34:12;64560.88;;;7.24;100.00
48624;BME280;75490;45.802;16.114;2024-03-23T01:36:39;64565.16;;;7.23;100.00
48624;BME280;75490;45.802;16.114;2024-03-23T01:39:06;64569.41;;;7.22;100.00
48624;BME280;75490;45.802;16.114;2024-03-23T01:41:35;64560.84;;;7.19;100.00
48624;BME280;75490;45.802;16.114;2024-03-23T01:44:05;64561.34;;;7.17;100.00
48624;BME280;75490;45.802;16.114;2024-03-23T01:46:36;64568.88;;;7.22;100.00
48624;BME280;75490;45.802;16.114;2024-03-23T01:49:07;64564.06;;;7.22;100.00
48624;BME280;75490;45.802;16.114;2024-03-23T01:51:35;64565.16;;;7.23;100.00
48624;BME280;75490;45.802;16.114;2024-03-23T01:54:03;64556.00;;;7.14;100.00
48624;BME280;75490;45.802;16.114;2024-03-23T01:56:34;64552.28;;;7.16;100.00
48624;BME280;75490;45.802;16.114;2024-03-23T01:59:06;64561.34;;;7.17;100.00
48624;BME280;75490;45.802;16.114;2024-03-23T02:01:36;64555.47;;;7.14;100.00
48624;BME280;75490;45.802;16.114;2024-03-23T02:04:03;64561.91;;;7.20;100.00
48624;BME280;75490;45.802;16.114;2024-03-23T02:06:30;64557.09;;;7.18;100.00
48624;BME280;75490;45.802;16.114;2024-03-23T02:08:57;64560.31;;;7.21;100.00
48624;BME280;75490;45.802;16.114;2024-03-23T02:11:24;64549.03;;;7.08;100.00
48624;BME280;75490;45.802;16.114;2024-03-23T02:13:51;64544.75;;;7.04;100.00
48624;BME280;75490;45.802;16.114;2024-03-23T02:16:20;64540.44;;;7.00;100.00
48624;BME280;75490;45.802;16.114;2024-03-23T02:18:47;64545.25;;;7.02;100.00
48624;BME280;75490;45.802;16.114;2024-03-23T02:21:15;64545.25;;;6.99;100.00
48624;BME280;75490;45.802;16.114;2024-03-23T02:23:42;64547.38;;;7.01;100.00
48624;BME280;75490;45.802;16.114;2024-03-23T02:26:12;64539.91;;;6.97;100.00
48624;BME280;75490;45.802;16.114;2024-03-23T02:28:38;64539.91;;;6.97;100.00
48624;BME280;75490;45.802;16.114;2024-03-23T02:31:07;64538.28;;;6.98;100.00
48624;BME280;75490;45.802;16.114;2024-03-23T02:33:34;64537.78;;;7.00;100.00
48624;BME280;75490;45.802;16.114;2024-03-23T02:36:04;64545.25;;;6.99;100.00
48624;BME280;75490;45.802;16.114;2024-03-23T02:38:31;64531.91;;;6.97;100.00
48624;BME280;75490;45.802;16.114;2024-03-23T02:41:04;64540.41;;;6.95;100.00
48624;BME280;75490;45.802;16.114;2024-03-23T02:43:31;64536.16;;;6.96;100.00
48624;BME280;75490;45.802;16.114;2024-03-23T02:46:00;64535.09;;;6.95;100.00
48624;BME280;75490;45.802;16.114;2024-03-23T02:48:27;64529.22;;;6.94;100.00
48624;BME280;75490;45.802;16.114;2024-03-23T02:51:02;64535.63;;;6.98;100.00
48624;BME280;75490;45.802;16.114;2024-03-23T02:53:37;64533.50;;;6.98;100.00
48624;BME280;75490;45.802;16.114;2024-03-23T02:56:20;64523.81;;;6.87;100.00
48624;BME280;75490;45.802;16.114;2024-03-23T02:58:50;64522.22;;;6.83;100.00
48624;BME280;75490;45.802;16.114;2024-03-23T03:01:19;64515.25;;;6.78;100.00
48624;BME280;75490;45.802;16.114;2024-03-23T03:03:51;64516.84;;;6.77;100.00
48624;BME280;75490;45.802;16.114;2024-03-23T03:06:27;64516.84;;;6.80;100.00
48624;BME280;75490;45.802;16.114;2024-03-23T03:08:56;64516.84;;;6.80;100.00
48624;BME280;75490;45.802;16.114;2024-03-23T03:11:25;64523.25;;;6.81;100.00
48624;BME280;75490;45.802;16.114;2024-03-23T03:14:03;64523.25;;;6.84;100.00
48624;BME280;75490;45.802;16.114;2024-03-23T03:16:30;64516.84;;;6.77;100.00
48624;BME280;75490;45.802;16.114;2024-03-23T03:19:04;64522.75;;;6.86;100.00
48624;BME280;75490;45.802;16.114;2024-03-23T03:21:38;64525.41;;;6.86;100.00
48624;BME280;75490;45.802;16.114;2024-03-23T03:24:06;64522.22;;;6.83;100.00
48624;BME280;75490;45.802;16.114;2024-03-23T03:26:34;64523.25;;;6.84;100.00
48624;BME280;75490;45.802;16.114;2024-03-23T03:29:02;64520.06;;;6.81;100.00
48624;BME280;75490;45.802;16.114;2024-03-23T03:31:29;64526.50;;;6.87;100.00
48624;BME280;75490;45.802;16.114;2024-03-23T03:33:59;64524.34;;;6.85;100.00
48624;BME280;75490;45.802;16.114;2024-03-23T03:36:28;64525.41;;;6.86;100.00
48624;BME280;75490;45.802;16.114;2024-03-23T03:38:56;64516.84;;;6.77;100.00
48624;BME280;75490;45.802;16.114;2024-03-23T03:41:25;64511.50;;;6.75;100.00
48624;BME280;75490;45.802;16.114;2024-03-23T03:43:52;64514.69;;;6.75;100.00
48624;BME280;75490;45.802;16.114;2024-03-23T03:46:19;64520.59;;;6.81;100.00
48624;BME280;75490;45.802;16.114;2024-03-23T03:48:46;64514.69;;;6.75;100.00
48624;BME280;75490;45.802;16.114;2024-03-23T03:51:14;64523.28;;;6.86;100.00
48624;BME280;75490;45.802;16.114;2024-03-23T03:53:41;64539.88;;;6.94;100.00
48624;BME280;75490;45.802;16.114;2024-03-23T03:56:09;64534.00;;;6.94;100.00
48624;BME280;75490;45.802;16.114;2024-03-23T03:58:36;64532.94;;;6.93;100.00
48624;BME280;75490;45.802;16.114;2024-03-23T04:01:03;64536.66;;;6.91;100.00
48624;BME280;75490;45.802;16.114;2024-03-23T04:03:30;64536.16;;;6.96;100.00
48624;BME280;75490;45.802;16.114;2024-03-23T04:05:57;64539.38;;;6.99;100.00
48624;BME280;75490;45.802;16.114;2024-03-23T04:08:24;64542.63;;;7.04;100.00
48624;BME280;75490;45.802;16.114;2024-03-23T04:10:51;64545.28;;;7.07;100.00
48624;BME280;75490;45.802;16.114;2024-03-23T04:13:21;64543.66;;;7.03;100.00
48624;BME280;75490;45.802;16.114;2024-03-23T04:15:53;64543.66;;;7.03;100.00
48624;BME280;75490;45.802;16.114;2024-03-23T04:18:23;64524.38;;;6.90;100.00
48624;BME280;75490;45.802;16.114;2024-03-23T04:20:53;64536.69;;;6.96;100.00
48624;BME280;75490;45.802;16.114;2024-03-23T04:23:23;64537.75;;;6.95;100.00
48624;BME280;75490;45.802;16.114;2024-03-23T04:25:49;64530.78;;;6.91;100.00
48624;BME280;75490;45.802;16.114;2024-03-23T04:28:16;64532.94;;;6.93;100.00
48624;BME280;75490;45.802;16.114;2024-03-23T04:30:43;64522.75;;;6.83;100.00
48624;BME280;75490;45.802;16.114;2024-03-23T04:33:16;64524.34;;;6.85;100.00
48624;BME280;75490;45.802;16.114;2024-03-23T04:35:42;64516.34;;;6.85;100.00
48624;BME280;75490;45.802;16.114;2024-03-23T04:38:09;64522.22;;;6.85;100.00
48624;BME280;75490;45.802;16.114;2024-03-23T04:40:38;64524.88;;;6.83;100.00
48624;BME280;75490;45.802;16.114;2024-03-23T04:43:05;64518.44;;;6.79;100.00
48624;BME280;75490;45.802;16.114;2024-03-23T04:45:34;64527.53;;;6.83;100.00
48624;BME280;75490;45.802;16.114;2024-03-23T04:48:01;64510.94;;;6.74;100.00
48624;BME280;75490;45.802;16.114;2024-03-23T04:50:28;64516.84;;;6.80;100.00
48624;BME280;75490;45.802;16.114;2024-03-23T04:52:57;64517.38;;;6.78;100.00
48624;BME280;75490;45.802;16.114;2024-03-23T04:55:27;64519.00;;;6.80;100.00
48624;BME280;75490;45.802;16.114;2024-03-23T04:57:55;64515.22;;;6.76;100.00
48624;BME280;75490;45.802;16.114;2024-03-23T05:00:25;64513.06;;;6.74;100.00
48624;BME280;75490;45.802;16.114;2024-03-23T05:02:53;64513.63;;;6.74;100.00
48624;BME280;75490;45.802;16.114;2024-03-23T05:05:22;64516.78;;;6.72;100.00
48624;BME280;75490;45.802;16.114;2024-03-23T05:07:49;64500.25;;;6.67;100.00
48624;BME280;75490;45.802;16.114;2024-03-23T05:10:16;64499.13;;;6.61;100.00
48624;BME280;75490;45.802;16.114;2024-03-23T05:12:43;64496.44;;;6.58;100.00
48624;BME280;75490;45.802;16.114;2024-03-23T05:15:12;64472.34;;;6.40;100.00
48624;BME280;75490;45.802;16.114;2024-03-23T05:17:39;64475.53;;;6.38;100.00
48624;BME280;75490;45.802;16.114;2024-03-23T05:20:06;64474.44;;;6.35;100.00
48624;BME280;75490;45.802;16.114;2024-03-23T05:22:36;64472.84;;;6.36;100.00
48624;BME280;75490;45.802;16.114;2024-03-23T05:25:03;64458.91;;;6.23;100.00
48624;BME280;75490;45.802;16.114;2024-03-23T05:27:34;64457.28;;;6.19;100.00
48624;BME280;75490;45.802;16.114;2024-03-23T05:30:00;64455.16;;;6.22;100.00
48624;BME280;75490;45.802;16.114;2024-03-23T05:32:27;64462.13;;;6.26;100.00
48624;BME280;75490;45.802;16.114;2024-03-23T05:34:54;64457.28;;;6.19;100.00
48624;BME280;75490;45.802;16.114;2024-03-23T05:37:24;64456.75;;;6.21;100.00
48624;BME280;75490;45.802;16.114;2024-03-23T05:39:51;64449.28;;;6.19;100.00
48624;BME280;75490;45.802;16.114;2024-03-23T05:42:18;64451.88;;;6.09;100.00
48624;BME280;75490;45.802;16.114;2024-03-23T05:44:48;64450.84;;;6.13;100.00
48624;BME280;75490;45.802;16.114;2024-03-23T05:47:18;64458.91;;;6.23;100.00
48624;BME280;75490;45.802;16.114;2024-03-23T05:49:52;64464.28;;;6.28;100.00
48624;BME280;75490;45.802;16.114;2024-03-23T05:52:22;64470.19;;;6.36;100.00
48624;BME280;75490;45.802;16.114;2024-03-23T05:54:52;64501.78;;;6.58;100.00
48624;BME280;75490;45.802;16.114;2024-03-23T05:57:21;64521.66;;;6.80;100.00
48624;BME280;75490;45.802;16.114;2024-03-23T05:59:48;64550.66;;;7.09;100.00
48624;BME280;75490;45.802;16.114;2024-03-23T06:02:15;64580.19;;;7.42;100.00
48624;BME280;75490;45.802;16.114;2024-03-23T06:04:45;64625.28;;;7.82;100.00
48624;BME280;75490;45.802;16.114;2024-03-23T06:07:12;64658.56;;;8.11;100.00
48624;BME280;75490;45.802;16.114;2024-03-23T06:09:41;64654.84;;;8.13;100.00
48624;BME280;75490;45.802;16.114;2024-03-23T06:12:11;64695.13;;;8.48;100.00
48624;BME280;75490;45.802;16.114;2024-03-23T06:14:37;64770.38;;;9.17;100.00
48624;BME280;75490;45.802;16.114;2024-03-23T06:17:12;64757.47;;;9.05;100.00
48624;BME280;75490;45.802;16.114;2024-03-23T06:19:41;64818.78;;;9.62;100.00
48624;BME280;75490;45.802;16.114;2024-03-23T06:22:12;64816.63;;;9.63;100.00
48624;BME280;75490;45.802;16.114;2024-03-23T06:24:46;64826.31;;;9.70;100.00
48624;BME280;75490;45.802;16.114;2024-03-23T06:27:18;64827.38;;;9.71;100.00
48624;BME280;75490;45.802;16.114;2024-03-23T06:29:45;64863.47;;;10.10;100.00
48624;BME280;75490;45.802;16.114;2024-03-23T06:32:14;64881.22;;;10.26;100.00
48624;BME280;75490;45.802;16.114;2024-03-23T06:34:42;64909.22;;;10.53;100.00
48624;BME280;75490;45.802;16.114;2024-03-23T06:37:11;64908.69;;;10.50;100.00
48624;BME280;75490;45.802;16.114;2024-03-23T06:39:38;64935.06;;;10.77;100.00
48624;BME280;75490;45.802;16.114;2024-03-23T06:42:05;64961.97;;;10.97;100.00
48624;BME280;75490;45.802;16.114;2024-03-23T06:44:32;64981.34;;;11.16;100.00
48624;BME280;75490;45.802;16.114;2024-03-23T06:47:01;65008.31;;;11.46;100.00
48624;BME280;75490;45.802;16.114;2024-03-23T06:49:32;65034.16;;;11.68;100.00
48624;BME280;75490;45.802;16.114;2024-03-23T06:51:59;65047.66;;;11.81;100.00
48624;BME280;75490;45.802;16.114;2024-03-23T06:54:26;65067.06;;;12.04;100.00
48624;BME280;75490;45.802;16.114;2024-03-23T06:56:53;65126.91;;;12.55;100.00
48624;BME280;75490;45.802;16.114;2024-03-23T06:59:23;65147.38;;;12.72;100.00
48624;BME280;75490;45.802;16.114;2024-03-23T07:01:50;65178.16;;;13.08;100.00
48624;BME280;75490;45.802;16.114;2024-03-23T07:04:17;65190.53;;;13.12;100.00
48624;BME280;75490;45.802;16.114;2024-03-23T07:06:45;65217.56;;;13.48;100.00
48624;BME280;75490;45.802;16.114;2024-03-23T07:09:13;65231.03;;;13.56;100.00
48624;BME280;75490;45.802;16.114;2024-03-23T07:11:40;65255.84;;;13.81;100.00
48624;BME280;75490;45.802;16.114;2024-03-23T07:14:07;65249.94;;;13.73;100.00
48624;BME280;75490;45.802;16.114;2024-03-23T07:16:34;65272.59;;;13.92;100.00
48624;BME280;75490;45.802;16.114;2024-03-23T07:19:04;65310.94;;;14.31;100.00
48624;BME280;75490;45.802;16.114;2024-03-23T07:21:31;65308.78;;;14.31;100.00
48624;BME280;75490;45.802;16.114;2024-03-23T07:24:01;65289.88;;;14.13;100.00
48624;BME280;75490;45.802;16.114;2024-03-23T07:26:28;65321.22;;;14.40;100.00
48624;BME280;75490;45.802;16.114;2024-03-23T07:28:55;65344.97;;;14.63;100.00
48624;BME280;75490;45.802;16.114;2024-03-23T07:31:22;65349.28;;;14.67;100.00
48624;BME280;75490;45.802;16.114;2024-03-23T07:33:49;65397.38;;;15.09;100.00
48624;BME280;75490;45.802;16.114;2024-03-23T07:36:17;65465.50;;;15.76;100.00
48624;BME280;75490;45.802;16.114;2024-03-23T07:38:48;65457.41;;;15.68;100.00
48624;BME280;75490;45.802;16.114;2024-03-23T07:41:17;65494.72;;;16.06;100.00
48624;BME280;75490;45.802;16.114;2024-03-23T07:43:54;65453.06;;;15.64;100.00
48624;BME280;75490;45.802;16.114;2024-03-23T07:46:24;65513.63;;;16.23;93.04
48624;BME280;75490;45.802;16.114;2024-03-23T07:48:52;65536.88;;;16.43;94.39
48624;BME280;75490;45.802;16.114;2024-03-23T07:51:22;65550.97;;;16.56;88.15
48624;BME280;75490;45.802;16.114;2024-03-23T07:53:49;65546.09;;;16.54;80.53
48624;BME280;75490;45.802;16.114;2024-03-23T07:56:22;65618.09;;;17.19;73.95
48624;BME280;75490;45.802;16.114;2024-03-23T07:58:51;65559.66;;;16.64;79.36
48624;BME280;75490;45.802;16.114;2024-03-23T08:01:18;65661.94;;;17.60;77.47
48624;BME280;75490;45.802;16.114;2024-03-23T08:03:45;65705.28;;;18.00;75.76
48624;BME280;75490;45.802;16.114;2024-03-23T08:06:17;65795.81;;;18.83;69.13
48624;BME280;75490;45.802;16.114;2024-03-23T08:08:45;65681.44;;;17.78;71.82
48624;BME280;75490;45.802;16.114;2024-03-23T08:11:14;65692.28;;;17.88;70.67
48624;BME280;75490;45.802;16.114;2024-03-23T08:13:45;65690.09;;;17.91;71.93
48624;BME280;75490;45.802;16.114;2024-03-23T08:16:17;65683.06;;;17.80;68.82
48624;BME280;75490;45.802;16.114;2024-03-23T08:18:47;65628.91;;;17.29;71.19
48624;BME280;75490;45.802;16.114;2024-03-23T08:21:15;65642.44;;;17.41;67.83
48624;BME280;75490;45.802;16.114;2024-03-23T08:23:41;65645.16;;;17.47;66.68
48624;BME280;75490;45.802;16.114;2024-03-23T08:26:12;65689.56;;;17.91;68.86
48624;BME280;75490;45.802;16.114;2024-03-23T08:28:41;65706.34;;;18.06;66.58
48624;BME280;75490;45.802;16.114;2024-03-23T08:31:10;65756.22;;;18.48;61.23
48624;BME280;75490;45.802;16.114;2024-03-23T08:33:40;65735.63;;;18.29;64.45
48624;BME280;75490;45.802;16.114;2024-03-23T08:36:19;65718.28;;;18.13;62.41
48624;BME280;75490;45.802;16.114;2024-03-23T08:38:47;65672.78;;;17.75;61.23
48624;BME280;75490;45.802;16.114;2024-03-23T08:41:14;65692.81;;;17.91;60.70
48624;BME280;75490;45.802;16.114;2024-03-23T08:43:41;65745.91;;;18.36;58.54
48624;BME280;75490;45.802;16.114;2024-03-23T08:46:12;65750.25;;;18.40;58.91
48624;BME280;75490;45.802;16.114;2024-03-23T08:48:42;65744.28;;;18.37;56.91
48624;BME280;75490;45.802;16.114;2024-03-23T08:51:13;65752.41;;;18.50;54.98
48624;BME280;75490;45.802;16.114;2024-03-23T08:53:41;65780.06;;;18.75;55.34
48624;BME280;75490;45.802;16.114;2024-03-23T08:56:08;65729.66;;;18.23;55.37
48624;BME280;75490;45.802;16.114;2024-03-23T08:58:37;65675.47;;;17.77;56.68
48624;BME280;75490;45.802;16.114;2024-03-23T09:01:12;65693.34;;;17.94;57.24
48624;BME280;75490;45.802;16.114;2024-03-23T09:03:42;65702.59;;;17.95;56.29
48624;BME280;75490;45.802;16.114;2024-03-23T09:06:11;65779.00;;;18.69;57.57
48624;BME280;75490;45.802;16.114;2024-03-23T09:08:38;65828.31;;;19.18;54.70
48624;BME280;75490;45.802;16.114;2024-03-23T09:11:12;65850.00;;;19.38;54.14
48624;BME280;75490;45.802;16.114;2024-03-23T09:13:40;65849.44;;;19.40;54.16
48624;BME280;75490;45.802;16.114;2024-03-23T09:16:08;65830.47;;;19.23;54.27
48624;BME280;75490;45.802;16.114;2024-03-23T09:18:36;65859.22;;;19.49;52.81
48624;BME280;75490;45.802;16.114;2024-03-23T09:21:04;65858.66;;;19.46;52.87
48624;BME280;75490;45.802;16.114;2024-03-23T09:23:32;65837.53;;;19.24;53.54
48624;BME280;75490;45.802;16.114;2024-03-23T09:26:03;65892.84;;;19.81;52.25
48624;BME280;75490;45.802;16.114;2024-03-23T09:28:30;65880.94;;;19.65;51.68
48624;BME280;75490;45.802;16.114;2024-03-23T09:31:06;65814.22;;;19.05;52.47
48624;BME280;75490;45.802;16.114;2024-03-23T09:33:34;65858.13;;;19.43;53.18
48624;BME280;75490;45.802;16.114;2024-03-23T09:36:05;65815.28;;;19.08;53.09
48624;BME280;75490;45.802;16.114;2024-03-23T09:38:33;65813.66;;;19.07;53.38
48624;BME280;75490;45.802;16.114;2024-03-23T09:41:00;65863.56;;;19.48;51.44
48624;BME280;75490;45.802;16.114;2024-03-23T09:43:27;65859.22;;;19.44;51.61
48624;BME280;75490;45.802;16.114;2024-03-23T09:45:54;65837.50;;;19.29;51.57
48624;BME280;75490;45.802;16.114;2024-03-23T09:48:21;65852.19;;;19.38;51.29
48624;BME280;75490;45.802;16.114;2024-03-23T09:50:48;65895.03;;;19.80;50.93
48624;BME280;75490;45.802;16.114;2024-03-23T09:53:15;65912.38;;;19.97;48.77
48624;BME280;75490;45.802;16.114;2024-03-23T09:55:44;65864.63;;;19.55;48.54
48624;BME280;75490;45.802;16.114;2024-03-23T09:58:16;65926.47;;;20.12;47.75
48624;BME280;75490;45.802;16.114;2024-03-23T10:00:44;65928.66;;;20.09;47.08
48624;BME280;75490;45.802;16.114;2024-03-23T10:03:11;65899.91;;;19.82;47.42
48624;BME280;75490;45.802;16.114;2024-03-23T10:05:38;65924.31;;;20.10;47.56
48624;BME280;75490;45.802;16.114;2024-03-23T10:08:18;65991.63;;;20.68;46.35
48624;BME280;75490;45.802;16.114;2024-03-23T10:10:46;65987.28;;;20.64;46.41
48624;BME280;75490;45.802;16.114;2024-03-23T10:13:26;65994.34;;;20.73;46.73
48624;BME280;75490;45.802;16.114;2024-03-23T10:15:57;65957.44;;;20.39;46.95
48624;BME280;75490;45.802;16.114;2024-03-23T10:18:25;65927.56;;;20.13;45.32
48624;BME280;75490;45.802;16.114;2024-03-23T10:21:06;65955.78;;;20.40;46.73
48624;BME280;75490;45.802;16.114;2024-03-23T10:23:39;65922.66;;;20.11;43.74
48624;BME280;75490;45.802;16.114;2024-03-23T10:26:19;65915.09;;;20.02;43.94
48624;BME280;75490;45.802;16.114;2024-03-23T10:28:57;65921.63;;;20.05;44.35
48624;BME280;75490;45.802;16.114;2024-03-23T10:31:30;65956.34;;;20.35;45.77
48624;BME280;75490;45.802;16.114;2024-03-23T10:33:57;65965.03;;;20.48;42.73
48624;BME280;75490;45.802;16.114;2024-03-23T10:36:24;65986.75;;;20.66;44.24
48624;BME280;75490;45.802;16.114;2024-03-23T10:38:54;65942.75;;;20.28;46.90
48624;BME280;75490;45.802;16.114;2024-03-23T10:41:21;66001.41;;;20.77;45.49
48624;BME280;75490;45.802;16.114;2024-03-23T10:43:48;65964.50;;;20.43;42.50
48624;BME280;75490;45.802;16.114;2024-03-23T10:46:15;65960.69;;;20.47;44.25
48624;BME280;75490;45.802;16.114;2024-03-23T10:48:43;65965.56;;;20.49;42.17
48624;BME280;75490;45.802;16.114;2024-03-23T10:51:10;65979.16;;;20.59;44.25
48624;BME280;75490;45.802;16.114;2024-03-23T10:53:37;65942.78;;;20.22;43.80
48624;BME280;75490;45.802;16.114;2024-03-23T10:56:05;65937.84;;;20.26;43.14
48624;BME280;75490;45.802;16.114;2024-03-23T10:58:39;65909.16;;;19.88;43.73
48624;BME280;75490;45.802;16.114;2024-03-23T11:01:11;65888.50;;;19.77;45.56
48624;BME280;75490;45.802;16.114;2024-03-23T11:03:39;65896.09;;;19.89;46.55
48624;BME280;75490;45.802;16.114;2024-03-23T11:06:08;65878.22;;;19.62;45.69
48624;BME280;75490;45.802;16.114;2024-03-23T11:08:39;65887.97;;;19.76;46.27
48624;BME280;75490;45.802;16.114;2024-03-23T11:11:20;65884.72;;;19.71;46.33
48624;BME280;75490;45.802;16.114;2024-03-23T11:13:49;65877.69;;;19.62;47.26
48624;BME280;75490;45.802;16.114;2024-03-23T11:16:27;65898.28;;;19.83;45.72
48624;BME280;75490;45.802;16.114;2024-03-23T11:19:35;65898.81;;;19.84;45.44
48624;BME280;75490;45.802;16.114;2024-03-23T11:22:05;65916.72;;;20.03;45.54
48624;BME280;75490;45.802;16.114;2024-03-23T11:24:38;65914.53;;;20.01;47.13
48624;BME280;75490;45.802;16.114;2024-03-23T11:27:19;65927.59;;;20.08;46.58
48624;BME280;75490;45.802;16.114;2024-03-23T11:29:50;65946.56;;;20.31;45.99
48624;BME280;75490;45.802;16.114;2024-03-23T11:32:17;65926.47;;;20.12;47.58
48624;BME280;75490;45.802;16.114;2024-03-23T11:34:44;65937.34;;;20.22;48.56
48624;BME280;75490;45.802;16.114;2024-03-23T11:37:13;65905.88;;;19.88;47.87
48624;BME280;75490;45.802;16.114;2024-03-23T11:39:40;65911.31;;;19.93;47.98
48624;BME280;75490;45.802;16.114;2024-03-23T11:42:07;65889.06;;;19.77;47.94
48624;BME280;75490;45.802;16.114;2024-03-23T11:44:34;65931.91;;;20.17;48.41
48624;BME280;75490;45.802;16.114;2024-03-23T11:47:08;65891.22;;;19.79;47.10
48624;BME280;75490;45.802;16.114;2024-03-23T11:49:37;65882.53;;;19.71;46.61
48624;BME280;75490;45.802;16.114;2024-03-23T11:52:07;65909.09;;;19.96;46.80
48624;BME280;75490;45.802;16.114;2024-03-23T11:54:34;65918.34;;;20.00;45.90
48624;BME280;75490;45.802;16.114;2024-03-23T11:57:05;65944.38;;;20.27;45.09
48624;BME280;75490;45.802;16.114;2024-03-23T11:59:39;65975.34;;;20.58;45.88
48624;BME280;75490;45.802;16.114;2024-03-23T12:02:11;65995.44;;;20.72;44.70
48624;BME280;75490;45.802;16.114;2024-03-23T12:04:41;65949.28;;;20.29;44.33
48624;BME280;75490;45.802;16.114;2024-03-23T12:07:14;65936.25;;;20.21;44.75
48624;BME280;75490;45.802;16.114;2024-03-23T12:09:41;65941.66;;;20.27;44.31
48624;BME280;75490;45.802;16.114;2024-03-23T12:12:18;65947.66;;;20.27;43.70
48624;BME280;75490;45.802;16.114;2024-03-23T12:14:46;65987.81;;;20.67;43.29
48624;BME280;75490;45.802;16.114;2024-03-23T12:17:27;65946.00;;;20.33;42.94
48624;BME280;75490;45.802;16.114;2024-03-23T12:19:54;65947.09;;;20.32;43.25
48624;BME280;75490;45.802;16.114;2024-03-23T12:22:22;65925.38;;;20.11;42.74
48624;BME280;75490;45.802;16.114;2024-03-23T12:24:49;65948.72;;;20.33;44.17
48624;BME280;75490;45.802;16.114;2024-03-23T12:27:16;65957.97;;;20.37;43.20
48624;BME280;75490;45.802;16.114;2024-03-23T12:29:43;65966.66;;;20.50;42.81
48624;BME280;75490;45.802;16.114;2024-03-23T12:32:13;65966.66;;;20.47;42.72
48624;BME280;75490;45.802;16.114;2024-03-23T12:34:40;65988.38;;;20.65;42.86
48624;BME280;75490;45.802;16.114;2024-03-23T12:37:08;65979.69;;;20.57;43.80
48624;BME280;75490;45.802;16.114;2024-03-23T12:39:35;65984.00;;;20.66;44.18
48624;BME280;75490;45.802;16.114;2024-03-23T12:42:17;65972.06;;;20.60;44.06
48624;BME280;75490;45.802;16.114;2024-03-23T12:44:59;66025.31;;;21.00;43.56
48624;BME280;75490;45.802;16.114;2024-03-23T12:47:45;65963.41;;;20.47;43.95
48624;BME280;75490;45.802;16.114;2024-03-23T12:50:20;65953.63;;;20.38;44.45
48624;BME280;75490;45.802;16.114;2024-03-23T12:52:47;65966.13;;;20.47;45.27
48624;BME280;75490;45.802;16.114;2024-03-23T12:55:19;65948.16;;;20.38;44.67
48624;BME280;75490;45.802;16.114;2024-03-23T12:57:55;65963.94;;;20.47;43.65
48624;BME280;75490;45.802;16.114;2024-03-23T13:00:27;65994.88;;;20.76;42.69
48624;BME280;75490;45.802;16.114;2024-03-23T13:03:00;66009.53;;;20.90;42.72
48624;BME280;75490;45.802;16.114;2024-03-23T13:05:27;66008.47;;;20.86;42.07
48624;BME280;75490;45.802;16.114;2024-03-23T13:07:57;65948.75;;;20.31;42.64
48624;BME280;75490;45.802;16.114;2024-03-23T13:10:30;65982.97;;;20.60;43.38
48624;BME280;75490;45.802;16.114;2024-03-23T13:13:24;65963.41;;;20.44;43.19
48624;BME280;75490;45.802;16.114;2024-03-23T13:16:17;65974.25;;;20.57;44.24
48624;BME280;75490;45.802;16.114;2024-03-23T13:18:57;66020.38;;;21.03;44.09
48624;BME280;75490;45.802;16.114;2024-03-23T13:21:32;66033.97;;;21.13;43.13
48624;BME280;75490;45.802;16.114;2024-03-23T13:24:12;65997.06;;;20.76;43.33
48624;BME280;75490;45.802;16.114;2024-03-23T13:26:58;65951.47;;;20.36;43.52
48624;BME280;75490;45.802;16.114;2024-03-23T13:29:40;65988.91;;;20.71;44.09
48624;BME280;75490;45.802;16.114;2024-03-23T13:32:33;65969.38;;;20.50;44.65
48624;BME280;75490;45.802;16.114;2024-03-23T13:35:53;65965.59;;;20.44;45.17
48624;BME280;75490;45.802;16.114;2024-03-23T13:38:41;65922.16;;;20.08;45.91
48624;BME280;75490;45.802;16.114;2024-03-23T13:41:14;65933.00;;;20.13;47.96
48624;BME280;75490;45.802;16.114;2024-03-23T13:43:44;65889.59;;;19.73;48.30
48624;BME280;75490;45.802;16.114;2024-03-23T13:46:19;65905.34;;;19.93;49.37
48624;BME280;75490;45.802;16.114;2024-03-23T13:48:57;65955.78;;;20.40;48.92
48624;BME280;75490;45.802;16.114;2024-03-23T13:51:33;65959.59;;;20.41;47.89
48624;BME280;75490;45.802;16.114;2024-03-23T13:54:29;65935.69;;;20.23;47.00